Midtown, Tennessee
Current Conditions -  °F | °C
As of 12:53 PM on Thursday 27 Nov 2014 (Local Time) from KOQT Reporting Station
Overcast Overcast  
Wind Chill: 37°   Ceiling: 3700
Heat Index: 40°   Visibility: 10mi
Dew Point: 29°   Wind: 5mph
Humidity: 65%   Direction: 270°W
Pressure: 30.29"   Gusts: NA
Location:  35.9599°N, 84.4439°W
Report Text: KOQT 271753Z AUTO 27004KT 10SM FEW029 OVC037 04/M02 A3029 RMK AO2 SLP269 60000 T00441017 10044 20033 50012
Loading
Personal Weather Stations






























Interactive Weather Map New forecast layout! Learn more

10-Day Weather Forecast

Advertisements
Track Severe Weather on mobile